sensor_id;sensor_type;location;lat;lon;timestamp;pressure;altitude;pressure_sealevel;temperature;humidity
27958;BME280;15295;42.658;23.374;2023-02-20T00:00:32;94855.88;;;15.42;38.62
27958;BME280;15295;42.658;23.374;2023-02-20T00:03:00;94824.28;;;15.27;38.50
27958;BME280;15295;42.658;23.374;2023-02-20T00:05:27;94868.16;;;15.61;38.47
27958;BME280;15295;42.658;23.374;2023-02-20T00:07:53;94874.16;;;15.56;38.95
27958;BME280;15295;42.658;23.374;2023-02-20T00:10:19;94851.25;;;15.35;39.06
27958;BME280;15295;42.658;23.374;2023-02-20T00:12:45;94842.63;;;15.14;39.50
27958;BME280;15295;42.658;23.374;2023-02-20T00:15:13;94888.16;;;15.41;39.28
27958;BME280;15295;42.658;23.374;2023-02-20T00:17:41;94863.97;;;15.29;39.37
27958;BME280;15295;42.658;23.374;2023-02-20T00:20:25;94887.84;;;15.36;39.69
27958;BME280;15295;42.658;23.374;2023-02-20T00:22:53;94857.09;;;15.18;39.74
27958;BME280;15295;42.658;23.374;2023-02-20T00:25:22;94879.28;;;15.30;39.74
27958;BME280;15295;42.658;23.374;2023-02-20T00:27:49;94892.53;;;15.39;39.91
27958;BME280;15295;42.658;23.374;2023-02-20T00:30:19;94840.41;;;15.05;39.88
27958;BME280;15295;42.658;23.374;2023-02-20T00:32:52;94884.72;;;15.34;40.01
27958;BME280;15295;42.658;23.374;2023-02-20T00:35:18;94859.13;;;15.14;39.88
27958;BME280;15295;42.658;23.374;2023-02-20T00:37:46;94879.19;;;15.37;40.15
27958;BME280;15295;42.658;23.374;2023-02-20T00:40:13;94847.78;;;15.12;40.41
27958;BME280;15295;42.658;23.374;2023-02-20T00:42:40;94872.00;;;15.20;40.35
27958;BME280;15295;42.658;23.374;2023-02-20T00:45:08;94865.16;;;15.28;40.35
27958;BME280;15295;42.658;23.374;2023-02-20T00:47:36;94820.84;;;15.00;40.63
27958;BME280;15295;42.658;23.374;2023-02-20T00:50:05;94872.00;;;15.20;40.56
27958;BME280;15295;42.658;23.374;2023-02-20T00:52:33;94855.72;;;15.06;40.86
27958;BME280;15295;42.658;23.374;2023-02-20T00:55:00;94875.31;;;15.12;40.80
27958;BME280;15295;42.658;23.374;2023-02-20T00:57:27;94864.06;;;14.99;40.79
27958;BME280;15295;42.658;23.374;2023-02-20T00:59:53;94883.13;;;15.13;41.03
27958;BME280;15295;42.658;23.374;2023-02-20T01:02:20;94849.00;;;14.84;41.04
27958;BME280;15295;42.658;23.374;2023-02-20T01:04:46;94888.84;;;14.99;41.03
27958;BME280;15295;42.658;23.374;2023-02-20T01:07:11;94875.69;;;14.87;41.15
27958;BME280;15295;42.658;23.374;2023-02-20T01:09:37;94878.19;;;14.78;41.12
27958;BME280;15295;42.658;23.374;2023-02-20T01:12:05;94883.44;;;14.69;41.54
27958;BME280;15295;42.658;23.374;2023-02-20T01:14:30;94906.06;;;14.80;41.32
27958;BME280;15295;42.658;23.374;2023-02-20T01:16:57;94906.19;;;14.73;41.82
27958;BME280;15295;42.658;23.374;2023-02-20T01:19:23;94887.38;;;14.68;41.55
27958;BME280;15295;42.658;23.374;2023-02-20T01:21:49;94928.06;;;14.80;41.85
27958;BME280;15295;42.658;23.374;2023-02-20T01:24:17;94905.91;;;14.64;41.96
27958;BME280;15295;42.658;23.374;2023-02-20T01:26:46;94915.31;;;14.66;41.77
27958;BME280;15295;42.658;23.374;2023-02-20T01:29:12;94925.94;;;14.64;41.85
27958;BME280;15295;42.658;23.374;2023-02-20T01:31:46;94927.91;;;14.64;41.92
27958;BME280;15295;42.658;23.374;2023-02-20T01:34:11;94932.63;;;14.63;42.24
27958;BME280;15295;42.658;23.374;2023-02-20T01:36:45;94936.81;;;14.75;42.08
27958;BME280;15295;42.658;23.374;2023-02-20T01:39:11;94923.59;;;14.63;42.04
27958;BME280;15295;42.658;23.374;2023-02-20T01:41:38;94928.19;;;14.73;42.14
27958;BME280;15295;42.658;23.374;2023-02-20T01:44:07;94937.19;;;14.74;42.05
27958;BME280;15295;42.658;23.374;2023-02-20T01:46:46;94904.84;;;14.54;42.37
27958;BME280;15295;42.658;23.374;2023-02-20T01:49:15;94931.75;;;14.70;42.44
27958;BME280;15295;42.658;23.374;2023-02-20T01:51:50;94929.97;;;14.56;43.03
27958;BME280;15295;42.658;23.374;2023-02-20T01:54:21;94955.63;;;14.77;43.03
27958;BME280;15295;42.658;23.374;2023-02-20T01:56:48;94874.97;;;14.30;43.13
27958;BME280;15295;42.658;23.374;2023-02-20T01:59:16;94897.13;;;14.46;43.29
27958;BME280;15295;42.658;23.374;2023-02-20T02:01:44;94896.09;;;14.36;43.22
27958;BME280;15295;42.658;23.374;2023-02-20T02:04:12;94910.88;;;14.46;43.48
27958;BME280;15295;42.658;23.374;2023-02-20T02:06:42;94908.25;;;14.39;43.60
27958;BME280;15295;42.658;23.374;2023-02-20T02:09:25;94918.09;;;14.36;43.80
27958;BME280;15295;42.658;23.374;2023-02-20T02:11:54;94920.06;;;14.36;44.06
27958;BME280;15295;42.658;23.374;2023-02-20T02:14:22;94923.94;;;14.38;43.88
27958;BME280;15295;42.658;23.374;2023-02-20T02:33:50;94977.28;;;14.07;43.22
27958;BME280;15295;42.658;23.374;2023-02-20T02:42:20;94968.91;;;13.84;43.33
27958;BME280;15295;42.658;23.374;2023-02-20T02:48:05;94966.59;;;13.82;43.38
27958;BME280;15295;42.658;23.374;2023-02-20T02:50:36;94940.50;;;13.60;43.57
27958;BME280;15295;42.658;23.374;2023-02-20T02:53:06;94951.91;;;13.59;43.59
27958;BME280;15295;42.658;23.374;2023-02-20T02:55:32;94954.72;;;13.52;43.77
27958;BME280;15295;42.658;23.374;2023-02-20T02:57:58;94949.22;;;13.55;43.73
27958;BME280;15295;42.658;23.374;2023-02-20T03:00:52;94959.50;;;13.44;44.10
27958;BME280;15295;42.658;23.374;2023-02-20T03:08:32;94976.72;;;13.48;43.63
27958;BME280;15295;42.658;23.374;2023-02-20T03:11:12;95007.22;;;13.61;43.89
27958;BME280;15295;42.658;23.374;2023-02-20T03:13:45;95004.84;;;13.63;43.84
27958;BME280;15295;42.658;23.374;2023-02-20T03:19:36;94976.41;;;13.39;44.14
27958;BME280;15295;42.658;23.374;2023-02-20T03:22:12;95007.31;;;13.50;44.04
27958;BME280;15295;42.658;23.374;2023-02-20T03:24:42;94975.34;;;13.26;44.12
27958;BME280;15295;42.658;23.374;2023-02-20T03:30:07;94949.22;;;13.04;44.05
27958;BME280;15295;42.658;23.374;2023-02-20T03:32:35;95014.47;;;13.37;44.14
27958;BME280;15295;42.658;23.374;2023-02-20T03:35:24;94987.59;;;13.11;44.18
27958;BME280;15295;42.658;23.374;2023-02-20T03:38:09;94967.69;;;13.00;44.04
27958;BME280;15295;42.658;23.374;2023-02-20T03:40:56;94999.78;;;13.10;44.06
27958;BME280;15295;42.658;23.374;2023-02-20T03:44:02;94961.91;;;12.84;44.10
27958;BME280;15295;42.658;23.374;2023-02-20T03:46:31;95027.91;;;13.25;43.89
27958;BME280;15295;42.658;23.374;2023-02-20T03:49:28;95045.91;;;13.29;44.23
27958;BME280;15295;42.658;23.374;2023-02-20T03:51:52;95013.13;;;13.08;44.18
27958;BME280;15295;42.658;23.374;2023-02-20T03:54:19;94995.13;;;13.00;44.22
27958;BME280;15295;42.658;23.374;2023-02-20T03:56:49;94990.03;;;12.95;44.26
27958;BME280;15295;42.658;23.374;2023-02-20T03:59:41;95021.69;;;13.17;43.86
27958;BME280;15295;42.658;23.374;2023-02-20T04:02:15;95016.69;;;12.98;44.01
27958;BME280;15295;42.658;23.374;2023-02-20T04:04:45;94996.81;;;12.80;44.39
27958;BME280;15295;42.658;23.374;2023-02-20T04:07:23;94973.75;;;12.67;44.07
27958;BME280;15295;42.658;23.374;2023-02-20T04:09:50;95003.03;;;12.84;44.16
27958;BME280;15295;42.658;23.374;2023-02-20T04:12:25;95006.94;;;12.86;44.07
27958;BME280;15295;42.658;23.374;2023-02-20T04:14:54;95019.06;;;12.92;43.88
27958;BME280;15295;42.658;23.374;2023-02-20T04:17:31;95049.94;;;13.10;43.79
27958;BME280;15295;42.658;23.374;2023-02-20T04:20:13;94974.56;;;12.67;43.67
27958;BME280;15295;42.658;23.374;2023-02-20T04:22:42;95044.84;;;13.09;43.53
27958;BME280;15295;42.658;23.374;2023-02-20T04:25:17;95024.13;;;12.94;43.31
27958;BME280;15295;42.658;23.374;2023-02-20T04:27:45;95016.31;;;12.92;43.51
27958;BME280;15295;42.658;23.374;2023-02-20T04:30:11;95018.25;;;12.99;43.38
27958;BME280;15295;42.658;23.374;2023-02-20T04:32:37;95055.00;;;13.19;43.62
27958;BME280;15295;42.658;23.374;2023-02-20T04:35:02;95043.69;;;13.03;43.26
27958;BME280;15295;42.658;23.374;2023-02-20T04:37:28;95042.91;;;13.02;43.49
27958;BME280;15295;42.658;23.374;2023-02-20T04:39:54;95012.41;;;12.90;43.73
27958;BME280;15295;42.658;23.374;2023-02-20T04:42:20;95037.81;;;13.01;43.81
27958;BME280;15295;42.658;23.374;2023-02-20T04:44:45;94969.91;;;12.57;44.12
27958;BME280;15295;42.658;23.374;2023-02-20T04:47:14;94986.66;;;12.73;44.00
27958;BME280;15295;42.658;23.374;2023-02-20T04:49:40;95026.13;;;12.90;43.92
27958;BME280;15295;42.658;23.374;2023-02-20T04:52:05;95027.75;;;12.80;44.11
27958;BME280;15295;42.658;23.374;2023-02-20T04:54:38;95024.31;;;12.66;43.63
27958;BME280;15295;42.658;23.374;2023-02-20T04:57:06;95036.84;;;12.63;43.46
27958;BME280;15295;42.658;23.374;2023-02-20T04:59:31;95072.38;;;12.88;43.46
27958;BME280;15295;42.658;23.374;2023-02-20T05:01:58;95055.63;;;12.68;43.11
27958;BME280;15295;42.658;23.374;2023-02-20T05:04:26;95070.38;;;12.92;42.86
27958;BME280;15295;42.658;23.374;2023-02-20T05:06:54;95044.22;;;12.77;42.27
27958;BME280;15295;42.658;23.374;2023-02-20T05:09:21;95053.25;;;12.74;42.20
27958;BME280;15295;42.658;23.374;2023-02-20T05:11:46;95047.41;;;12.65;41.96
27958;BME280;15295;42.658;23.374;2023-02-20T05:14:12;95057.63;;;12.61;41.57
27958;BME280;15295;42.658;23.374;2023-02-20T05:16:42;95086.13;;;12.77;41.59
27958;BME280;15295;42.658;23.374;2023-02-20T05:19:10;95084.56;;;12.80;41.35
27958;BME280;15295;42.658;23.374;2023-02-20T05:21:36;95082.22;;;12.75;41.45
27958;BME280;15295;42.658;23.374;2023-02-20T05:24:21;95081.84;;;12.73;40.98
27958;BME280;15295;42.658;23.374;2023-02-20T05:26:46;95068.19;;;12.66;40.81
27958;BME280;15295;42.658;23.374;2023-02-20T05:34:14;95060.44;;;12.36;41.26
27958;BME280;15295;42.658;23.374;2023-02-20T05:36:41;95051.13;;;12.23;41.23
27958;BME280;15295;42.658;23.374;2023-02-20T05:39:10;95090.19;;;12.45;41.14
27958;BME280;15295;42.658;23.374;2023-02-20T05:41:37;95069.06;;;12.34;41.00
27958;BME280;15295;42.658;23.374;2023-02-20T05:44:12;95094.44;;;12.60;41.11
27958;BME280;15295;42.658;23.374;2023-02-20T05:46:43;95079.63;;;12.47;41.27
27958;BME280;15295;42.658;23.374;2023-02-20T05:49:09;95105.41;;;12.63;41.50
27958;BME280;15295;42.658;23.374;2023-02-20T05:51:44;95060.47;;;12.32;41.85
27958;BME280;15295;42.658;23.374;2023-02-20T05:54:11;95090.22;;;12.34;42.32
27958;BME280;15295;42.658;23.374;2023-02-20T05:56:44;95138.28;;;12.74;42.38
27958;BME280;15295;42.658;23.374;2023-02-20T05:59:11;95100.75;;;12.50;42.11
27958;BME280;15295;42.658;23.374;2023-02-20T06:01:40;95135.09;;;12.82;42.40
27958;BME280;15295;42.658;23.374;2023-02-20T06:04:08;95099.53;;;12.58;42.37
27958;BME280;15295;42.658;23.374;2023-02-20T06:06:38;95083.13;;;12.47;42.52
27958;BME280;15295;42.658;23.374;2023-02-20T06:09:08;95143.75;;;12.81;42.30
27958;BME280;15295;42.658;23.374;2023-02-20T06:11:36;95104.25;;;12.54;42.00
27958;BME280;15295;42.658;23.374;2023-02-20T06:14:05;95120.66;;;12.68;41.57
27958;BME280;15295;42.658;23.374;2023-02-20T06:16:38;95087.00;;;12.53;41.28
27958;BME280;15295;42.658;23.374;2023-02-20T06:19:04;95096.38;;;12.66;41.01
27958;BME280;15295;42.658;23.374;2023-02-20T06:21:31;95104.97;;;12.75;40.01
27958;BME280;15295;42.658;23.374;2023-02-20T06:24:00;95151.09;;;13.05;39.46
27958;BME280;15295;42.658;23.374;2023-02-20T06:26:26;95109.63;;;12.82;39.33
27958;BME280;15295;42.658;23.374;2023-02-20T06:28:51;95116.66;;;12.86;39.27
27958;BME280;15295;42.658;23.374;2023-02-20T06:31:24;95100.19;;;12.90;38.95
27958;BME280;15295;42.658;23.374;2023-02-20T06:33:50;95160.00;;;13.27;38.93
27958;BME280;15295;42.658;23.374;2023-02-20T06:36:35;95132.16;;;13.28;38.80
27958;BME280;15295;42.658;23.374;2023-02-20T06:39:03;95143.88;;;13.39;38.79
27958;BME280;15295;42.658;23.374;2023-02-20T06:41:31;95160.53;;;13.69;38.60
27958;BME280;15295;42.658;23.374;2023-02-20T06:43:57;95179.06;;;13.58;38.55
27958;BME280;15295;42.658;23.374;2023-02-20T06:46:24;95140.66;;;13.51;37.61
27958;BME280;15295;42.658;23.374;2023-02-20T06:48:53;95146.06;;;13.65;37.36
27958;BME280;15295;42.658;23.374;2023-02-20T06:51:22;95145.31;;;13.61;37.26
27958;BME280;15295;42.658;23.374;2023-02-20T06:53:49;95147.22;;;13.64;37.07
27958;BME280;15295;42.658;23.374;2023-02-20T06:56:20;95132.78;;;13.57;36.96
27958;BME280;15295;42.658;23.374;2023-02-20T06:58:48;95155.47;;;13.68;37.07
27958;BME280;15295;42.658;23.374;2023-02-20T07:01:17;95163.31;;;13.62;36.96
27958;BME280;15295;42.658;23.374;2023-02-20T07:03:45;95158.25;;;13.61;37.12
27958;BME280;15295;42.658;23.374;2023-02-20T07:06:12;95121.53;;;13.37;37.05
27958;BME280;15295;42.658;23.374;2023-02-20T07:08:37;95157.06;;;13.62;37.39
27958;BME280;15295;42.658;23.374;2023-02-20T07:11:03;95151.22;;;13.56;37.15
27958;BME280;15295;42.658;23.374;2023-02-20T07:13:29;95144.13;;;13.59;37.04
27958;BME280;15295;42.658;23.374;2023-02-20T07:15:55;95164.75;;;13.84;36.85
27958;BME280;15295;42.658;23.374;2023-02-20T07:18:20;95170.28;;;13.77;36.57
27958;BME280;15295;42.658;23.374;2023-02-20T07:20:53;95147.75;;;13.49;35.91
27958;BME280;15295;42.658;23.374;2023-02-20T07:23:21;95177.00;;;13.73;35.58
27958;BME280;15295;42.658;23.374;2023-02-20T07:25:47;95188.84;;;13.66;35.46
27958;BME280;15295;42.658;23.374;2023-02-20T07:28:14;95178.66;;;13.60;34.91
27958;BME280;15295;42.658;23.374;2023-02-20T07:30:40;95204.38;;;13.87;34.94
27958;BME280;15295;42.658;23.374;2023-02-20T07:33:05;95207.78;;;14.05;34.33
27958;BME280;15295;42.658;23.374;2023-02-20T07:35:31;95206.94;;;14.12;33.99
27958;BME280;15295;42.658;23.374;2023-02-20T07:37:57;95195.09;;;14.22;33.67
27958;BME280;15295;42.658;23.374;2023-02-20T07:40:23;95228.84;;;14.29;33.36
27958;BME280;15295;42.658;23.374;2023-02-20T07:42:48;95199.31;;;14.37;33.03
27958;BME280;15295;42.658;23.374;2023-02-20T07:45:13;95199.78;;;14.25;33.40
27958;BME280;15295;42.658;23.374;2023-02-20T07:47:40;95218.75;;;14.56;33.08
27958;BME280;15295;42.658;23.374;2023-02-20T07:50:05;95213.69;;;14.55;32.40
27958;BME280;15295;42.658;23.374;2023-02-20T07:52:31;95199.59;;;14.49;32.14
27958;BME280;15295;42.658;23.374;2023-02-20T07:54:56;95214.88;;;14.54;32.12
27958;BME280;15295;42.658;23.374;2023-02-20T07:57:22;95209.38;;;14.54;32.02
27958;BME280;15295;42.658;23.374;2023-02-20T07:59:47;95207.66;;;14.67;31.85
27958;BME280;15295;42.658;23.374;2023-02-20T08:02:13;95236.47;;;14.96;31.60
27958;BME280;15295;42.658;23.374;2023-02-20T08:04:38;95216.00;;;14.97;31.38
27958;BME280;15295;42.658;23.374;2023-02-20T08:07:05;95223.41;;;15.04;31.44
27958;BME280;15295;42.658;23.374;2023-02-20T08:09:33;95215.59;;;15.32;30.97
27958;BME280;15295;42.658;23.374;2023-02-20T08:11:58;95217.50;;;15.39;30.47
27958;BME280;15295;42.658;23.374;2023-02-20T08:14:25;95223.53;;;15.61;30.58
27958;BME280;15295;42.658;23.374;2023-02-20T08:16:52;95214.72;;;15.73;30.16
27958;BME280;15295;42.658;23.374;2023-02-20T08:19:18;95226.13;;;16.01;29.66
27958;BME280;15295;42.658;23.374;2023-02-20T08:21:43;95221.81;;;16.27;29.46
27958;BME280;15295;42.658;23.374;2023-02-20T08:24:08;95220.84;;;16.37;29.16
27958;BME280;15295;42.658;23.374;2023-02-20T08:26:34;95239.56;;;16.49;29.21
27958;BME280;15295;42.658;23.374;2023-02-20T08:29:00;95207.88;;;16.34;29.03
27958;BME280;15295;42.658;23.374;2023-02-20T08:31:25;95223.97;;;16.39;29.08
27958;BME280;15295;42.658;23.374;2023-02-20T08:33:52;95223.72;;;16.57;28.99
27958;BME280;15295;42.658;23.374;2023-02-20T08:36:18;95217.75;;;16.32;28.71
27958;BME280;15295;42.658;23.374;2023-02-20T08:38:43;95226.81;;;16.59;28.67
27958;BME280;15295;42.658;23.374;2023-02-20T08:41:10;95236.19;;;16.65;28.74
27958;BME280;15295;42.658;23.374;2023-02-20T08:43:37;95218.78;;;16.68;28.77
27958;BME280;15295;42.658;23.374;2023-02-20T08:46:06;95217.16;;;16.93;28.68
27958;BME280;15295;42.658;23.374;2023-02-20T08:48:33;95230.41;;;17.02;28.23
27958;BME280;15295;42.658;23.374;2023-02-20T08:50:59;95231.00;;;16.90;28.46
27958;BME280;15295;42.658;23.374;2023-02-20T08:53:24;95220.25;;;16.95;28.44
27958;BME280;15295;42.658;23.374;2023-02-20T08:55:50;95233.72;;;17.13;28.32
27958;BME280;15295;42.658;23.374;2023-02-20T08:58:23;95236.06;;;17.15;28.19
27958;BME280;15295;42.658;23.374;2023-02-20T09:00:49;95234.44;;;17.37;28.03
27958;BME280;15295;42.658;23.374;2023-02-20T09:03:16;95228.44;;;17.42;27.78
27958;BME280;15295;42.658;23.374;2023-02-20T09:05:42;95210.03;;;17.55;27.85
27958;BME280;15295;42.658;23.374;2023-02-20T09:08:07;95203.38;;;17.52;27.70
27958;BME280;15295;42.658;23.374;2023-02-20T09:10:33;95210.88;;;17.52;27.50
27958;BME280;15295;42.658;23.374;2023-02-20T09:12:59;95197.13;;;17.48;27.28
27958;BME280;15295;42.658;23.374;2023-02-20T09:15:24;95188.38;;;17.53;27.32
27958;BME280;15295;42.658;23.374;2023-02-20T09:17:51;95223.13;;;17.70;26.67
27958;BME280;15295;42.658;23.374;2023-02-20T09:20:18;95206.00;;;17.59;26.67
27958;BME280;15295;42.658;23.374;2023-02-20T09:22:46;95208.31;;;17.61;26.99
27958;BME280;15295;42.658;23.374;2023-02-20T09:25:13;95215.81;;;17.80;26.73
27958;BME280;15295;42.658;23.374;2023-02-20T09:27:39;95197.34;;;17.57;26.98
27958;BME280;15295;42.658;23.374;2023-02-20T09:30:05;95219.16;;;17.52;26.75
27958;BME280;15295;42.658;23.374;2023-02-20T09:32:31;95212.47;;;17.49;27.34
27958;BME280;15295;42.658;23.374;2023-02-20T09:34:56;95213.97;;;17.15;27.50
27958;BME280;15295;42.658;23.374;2023-02-20T09:37:22;95211.41;;;17.24;27.73
27958;BME280;15295;42.658;23.374;2023-02-20T09:39:48;95174.94;;;17.32;27.46
27958;BME280;15295;42.658;23.374;2023-02-20T09:45:26;95194.63;;;17.73;27.22
27958;BME280;15295;42.658;23.374;2023-02-20T09:48:18;95223.53;;;17.89;26.82
27958;BME280;15295;42.658;23.374;2023-02-20T09:50:58;95203.91;;;17.83;27.11
27958;BME280;15295;42.658;23.374;2023-02-20T09:56:03;95214.16;;;18.02;27.16
27958;BME280;15295;42.658;23.374;2023-02-20T09:58:40;95227.19;;;18.02;27.17
27958;BME280;15295;42.658;23.374;2023-02-20T10:01:10;95205.66;;;17.93;27.16
27958;BME280;15295;42.658;23.374;2023-02-20T10:06:16;95225.41;;;18.27;26.88
27958;BME280;15295;42.658;23.374;2023-02-20T10:08:42;95217.34;;;18.33;26.27
27958;BME280;15295;42.658;23.374;2023-02-20T10:11:15;95202.44;;;18.46;26.08
27958;BME280;15295;42.658;23.374;2023-02-20T10:13:49;95206.22;;;18.85;25.16
27958;BME280;15295;42.658;23.374;2023-02-20T10:16:33;95203.09;;;18.99;24.88
27958;BME280;15295;42.658;23.374;2023-02-20T10:23:00;95204.16;;;19.17;24.36
27958;BME280;15295;42.658;23.374;2023-02-20T10:25:30;95195.59;;;19.12;23.98
27958;BME280;15295;42.658;23.374;2023-02-20T10:28:09;95198.66;;;19.01;24.15
27958;BME280;15295;42.658;23.374;2023-02-20T10:33:27;95181.59;;;19.03;23.61
27958;BME280;15295;42.658;23.374;2023-02-20T10:35:59;95191.78;;;19.06;23.46
27958;BME280;15295;42.658;23.374;2023-02-20T10:38:29;95172.50;;;19.02;23.58
27958;BME280;15295;42.658;23.374;2023-02-20T10:41:01;95190.34;;;19.30;23.62
27958;BME280;15295;42.658;23.374;2023-02-20T10:46:18;95183.88;;;18.92;23.18
27958;BME280;15295;42.658;23.374;2023-02-20T10:48:47;95180.31;;;19.07;23.62
27958;BME280;15295;42.658;23.374;2023-02-20T10:56:43;95173.69;;;19.17;23.72
27958;BME280;15295;42.658;23.374;2023-02-20T11:02:22;95162.53;;;19.62;23.29
27958;BME280;15295;42.658;23.374;2023-02-20T11:04:54;95134.91;;;19.71;22.87
27958;BME280;15295;42.658;23.374;2023-02-20T11:07:22;95160.75;;;19.81;22.24
27958;BME280;15295;42.658;23.374;2023-02-20T11:09:47;95164.19;;;19.72;22.54
27958;BME280;15295;42.658;23.374;2023-02-20T11:12:34;95136.13;;;19.95;22.63
27958;BME280;15295;42.658;23.374;2023-02-20T11:15:06;95150.78;;;19.96;22.43
27958;BME280;15295;42.658;23.374;2023-02-20T11:17:34;95147.47;;;19.76;22.81
27958;BME280;15295;42.658;23.374;2023-02-20T11:20:02;95153.88;;;19.98;22.48
27958;BME280;15295;42.658;23.374;2023-02-20T11:25:20;95147.25;;;20.21;22.56
27958;BME280;15295;42.658;23.374;2023-02-20T11:27:50;95150.03;;;20.21;22.64
27958;BME280;15295;42.658;23.374;2023-02-20T11:30:28;95153.03;;;20.26;22.25
27958;BME280;15295;42.658;23.374;2023-02-20T11:33:20;95139.28;;;20.23;22.32
27958;BME280;15295;42.658;23.374;2023-02-20T11:35:51;95165.91;;;20.33;21.84
27958;BME280;15295;42.658;23.374;2023-02-20T11:43:21;95166.22;;;20.35;22.84
27958;BME280;15295;42.658;23.374;2023-02-20T11:45:49;95152.25;;;20.26;22.81
27958;BME280;15295;42.658;23.374;2023-02-20T11:48:19;95144.81;;;20.23;22.63
27958;BME280;15295;42.658;23.374;2023-02-20T11:50:52;95152.91;;;20.30;22.68
27958;BME280;15295;42.658;23.374;2023-02-20T11:53:22;95148.44;;;20.45;22.70
27958;BME280;15295;42.658;23.374;2023-02-20T11:55:50;95147.66;;;20.32;22.61
27958;BME280;15295;42.658;23.374;2023-02-20T11:58:30;95154.88;;;20.17;22.83
27958;BME280;15295;42.658;23.374;2023-02-20T12:00:56;95136.91;;;20.09;22.95
27958;BME280;15295;42.658;23.374;2023-02-20T12:03:27;95123.81;;;19.96;23.18
27958;BME280;15295;42.658;23.374;2023-02-20T12:05:54;95127.38;;;19.97;23.25
27958;BME280;15295;42.658;23.374;2023-02-20T12:11:19;95139.34;;;19.81;23.52
27958;BME280;15295;42.658;23.374;2023-02-20T12:13:47;95106.28;;;19.74;23.41
27958;BME280;15295;42.658;23.374;2023-02-20T12:19:10;95123.28;;;20.02;22.87
27958;BME280;15295;42.658;23.374;2023-02-20T12:24:29;95147.13;;;19.86;23.22
27958;BME280;15295;42.658;23.374;2023-02-20T12:27:01;95139.34;;;20.07;22.85
27958;BME280;15295;42.658;23.374;2023-02-20T12:32:33;95139.34;;;20.32;22.76
27958;BME280;15295;42.658;23.374;2023-02-20T12:40:57;95134.91;;;20.09;22.88
27958;BME280;15295;42.658;23.374;2023-02-20T12:46:22;95136.16;;;20.21;22.78
27958;BME280;15295;42.658;23.374;2023-02-20T12:54:52;95137.47;;;20.16;22.94
27958;BME280;15295;42.658;23.374;2023-02-20T12:59:58;95141.78;;;20.05;23.13
27958;BME280;15295;42.658;23.374;2023-02-20T13:02:32;95124.25;;;19.70;22.98
27958;BME280;15295;42.658;23.374;2023-02-20T13:05:01;95143.91;;;19.88;23.35
27958;BME280;15295;42.658;23.374;2023-02-20T13:07:36;95152.34;;;19.97;22.83
27958;BME280;15295;42.658;23.374;2023-02-20T13:10:12;95149.78;;;20.02;22.57
27958;BME280;15295;42.658;23.374;2023-02-20T13:12:39;95141.47;;;20.02;22.81
27958;BME280;15295;42.658;23.374;2023-02-20T13:15:15;95147.47;;;20.14;22.95
27958;BME280;15295;42.658;23.374;2023-02-20T13:20:36;95132.03;;;19.87;23.19
27958;BME280;15295;42.658;23.374;2023-02-20T13:25:45;95149.44;;;19.88;23.43
27958;BME280;15295;42.658;23.374;2023-02-20T13:30:36;95143.78;;;19.79;23.15
27958;BME280;15295;42.658;23.374;2023-02-20T13:33:21;95151.13;;;19.85;23.33
27958;BME280;15295;42.658;23.374;2023-02-20T13:35:51;95147.53;;;19.60;23.58
27958;BME280;15295;42.658;23.374;2023-02-20T13:38:19;95155.63;;;19.54;23.38
27958;BME280;15295;42.658;23.374;2023-02-20T13:43:25;95144.66;;;19.63;23.90
27958;BME280;15295;42.658;23.374;2023-02-20T13:53:48;95149.81;;;19.07;24.79
27958;BME280;15295;42.658;23.374;2023-02-20T13:56:23;95145.28;;;18.85;25.05
27958;BME280;15295;42.658;23.374;2023-02-20T13:58:50;95162.69;;;18.69;25.08
27958;BME280;15295;42.658;23.374;2023-02-20T14:01:16;95152.44;;;18.54;25.02
27958;BME280;15295;42.658;23.374;2023-02-20T14:03:42;95175.00;;;18.52;25.52
27958;BME280;15295;42.658;23.374;2023-02-20T14:08:36;95146.03;;;18.40;25.69
27958;BME280;15295;42.658;23.374;2023-02-20T14:11:30;95176.69;;;18.50;25.47
27958;BME280;15295;42.658;23.374;2023-02-20T14:13:54;95169.28;;;18.27;26.00
27958;BME280;15295;42.658;23.374;2023-02-20T14:16:31;95160.13;;;18.30;26.29
27958;BME280;15295;42.658;23.374;2023-02-20T14:19:21;95164.09;;;18.29;26.11
27958;BME280;15295;42.658;23.374;2023-02-20T14:21:49;95148.63;;;18.15;26.18
27958;BME280;15295;42.658;23.374;2023-02-20T14:24:25;95162.78;;;18.01;26.60
27958;BME280;15295;42.658;23.374;2023-02-20T14:26:52;95163.63;;;17.82;26.81
27958;BME280;15295;42.658;23.374;2023-02-20T14:29:28;95167.38;;;17.92;27.19
27958;BME280;15295;42.658;23.374;2023-02-20T14:31:56;95169.06;;;17.86;27.25
27958;BME280;15295;42.658;23.374;2023-02-20T14:37:17;95159.41;;;17.58;27.44
27958;BME280;15295;42.658;23.374;2023-02-20T14:42:43;95184.50;;;17.47;27.69
27958;BME280;15295;42.658;23.374;2023-02-20T14:45:19;95186.97;;;17.42;27.75
27958;BME280;15295;42.658;23.374;2023-02-20T14:47:54;95191.28;;;17.43;28.02
27958;BME280;15295;42.658;23.374;2023-02-20T14:50:29;95171.13;;;17.26;28.06
27958;BME280;15295;42.658;23.374;2023-02-20T14:53:00;95199.44;;;17.30;28.46
27958;BME280;15295;42.658;23.374;2023-02-20T14:55:27;95196.91;;;17.20;28.39
27958;BME280;15295;42.658;23.374;2023-02-20T14:57:53;95190.72;;;16.92;28.95
27958;BME280;15295;42.658;23.374;2023-02-20T15:02:50;95203.00;;;16.68;29.02
27958;BME280;15295;42.658;23.374;2023-02-20T15:05:29;95197.63;;;16.61;29.48
27958;BME280;15295;42.658;23.374;2023-02-20T15:10:50;95192.03;;;16.38;29.77
27958;BME280;15295;42.658;23.374;2023-02-20T15:13:26;95201.00;;;16.23;29.98
27958;BME280;15295;42.658;23.374;2023-02-20T15:16:05;95192.47;;;16.13;30.43
27958;BME280;15295;42.658;23.374;2023-02-20T15:21:00;95181.44;;;16.13;30.59
27958;BME280;15295;42.658;23.374;2023-02-20T15:23:32;95198.25;;;16.19;30.24